sensor_id;sensor_type;location;lat;lon;timestamp;temperature;humidity
37974;DHT22;23796;51.458;7.000;2022-11-14T00:00:44;7.50;99.90
37974;DHT22;23796;51.458;7.000;2022-11-14T00:03:10;7.40;99.90
37974;DHT22;23796;51.458;7.000;2022-11-14T00:05:41;7.30;99.90
37974;DHT22;23796;51.458;7.000;2022-11-14T00:08:21;7.30;99.90
37974;DHT22;23796;51.458;7.000;2022-11-14T00:10:48;7.30;99.90
37974;DHT22;23796;51.458;7.000;2022-11-14T00:13:15;7.30;99.90
37974;DHT22;23796;51.458;7.000;2022-11-14T00:15:41;7.30;99.90
37974;DHT22;23796;51.458;7.000;2022-11-14T00:18:07;7.20;99.90
37974;DHT22;23796;51.458;7.000;2022-11-14T00:20:35;7.20;99.90
37974;DHT22;23796;51.458;7.000;2022-11-14T00:23:03;7.30;99.90
37974;DHT22;23796;51.458;7.000;2022-11-14T00:25:32;7.30;99.90
37974;DHT22;23796;51.458;7.000;2022-11-14T00:28:00;7.30;99.90
37974;DHT22;23796;51.458;7.000;2022-11-14T00:30:26;7.30;99.90
37974;DHT22;23796;51.458;7.000;2022-11-14T00:32:54;7.30;99.90
37974;DHT22;23796;51.458;7.000;2022-11-14T00:35:22;7.40;99.90
37974;DHT22;23796;51.458;7.000;2022-11-14T00:37:50;7.30;99.90
37974;DHT22;23796;51.458;7.000;2022-11-14T00:40:16;7.30;99.90
37974;DHT22;23796;51.458;7.000;2022-11-14T00:42:41;7.30;99.90
37974;DHT22;23796;51.458;7.000;2022-11-14T00:45:09;7.30;99.90
37974;DHT22;23796;51.458;7.000;2022-11-14T00:47:35;7.30;99.90
37974;DHT22;23796;51.458;7.000;2022-11-14T00:50:01;7.20;99.90
37974;DHT22;23796;51.458;7.000;2022-11-14T00:52:26;7.20;99.90
37974;DHT22;23796;51.458;7.000;2022-11-14T00:54:52;7.20;99.90
37974;DHT22;23796;51.458;7.000;2022-11-14T00:57:18;7.20;99.90
37974;DHT22;23796;51.458;7.000;2022-11-14T00:59:43;7.20;99.90
37974;DHT22;23796;51.458;7.000;2022-11-14T01:02:09;7.10;99.90
37974;DHT22;23796;51.458;7.000;2022-11-14T01:04:34;7.10;99.90
37974;DHT22;23796;51.458;7.000;2022-11-14T01:07:00;7.10;99.90
37974;DHT22;23796;51.458;7.000;2022-11-14T01:09:26;7.10;99.90
37974;DHT22;23796;51.458;7.000;2022-11-14T01:11:51;7.10;99.90
37974;DHT22;23796;51.458;7.000;2022-11-14T01:14:17;7.10;99.90
37974;DHT22;23796;51.458;7.000;2022-11-14T01:16:45;7.00;99.90
37974;DHT22;23796;51.458;7.000;2022-11-14T01:19:10;7.00;99.90
37974;DHT22;23796;51.458;7.000;2022-11-14T01:21:36;7.00;99.90
37974;DHT22;23796;51.458;7.000;2022-11-14T01:24:02;7.00;99.90
37974;DHT22;23796;51.458;7.000;2022-11-14T01:26:27;7.00;99.90
37974;DHT22;23796;51.458;7.000;2022-11-14T01:28:55;6.90;99.90
37974;DHT22;23796;51.458;7.000;2022-11-14T01:31:23;6.90;99.90
37974;DHT22;23796;51.458;7.000;2022-11-14T01:33:52;6.90;99.90
37974;DHT22;23796;51.458;7.000;2022-11-14T01:36:18;6.90;99.90
37974;DHT22;23796;51.458;7.000;2022-11-14T01:38:44;6.80;99.90
37974;DHT22;23796;51.458;7.000;2022-11-14T01:41:14;6.80;99.90
37974;DHT22;23796;51.458;7.000;2022-11-14T01:43:42;6.80;99.90
37974;DHT22;23796;51.458;7.000;2022-11-14T01:46:24;6.80;99.90
37974;DHT22;23796;51.458;7.000;2022-11-14T01:48:59;6.80;99.90
37974;DHT22;23796;51.458;7.000;2022-11-14T01:51:32;6.80;99.90
37974;DHT22;23796;51.458;7.000;2022-11-14T01:54:01;6.70;99.90
37974;DHT22;23796;51.458;7.000;2022-11-14T01:56:31;6.70;99.90
37974;DHT22;23796;51.458;7.000;2022-11-14T01:59:11;6.70;99.90
37974;DHT22;23796;51.458;7.000;2022-11-14T02:01:47;6.70;99.90
37974;DHT22;23796;51.458;7.000;2022-11-14T02:04:17;6.60;99.90
37974;DHT22;23796;51.458;7.000;2022-11-14T02:06:44;6.60;99.90
37974;DHT22;23796;51.458;7.000;2022-11-14T02:09:11;6.50;99.90
37974;DHT22;23796;51.458;7.000;2022-11-14T02:11:42;6.50;99.90
37974;DHT22;23796;51.458;7.000;2022-11-14T02:14:09;6.60;99.90
37974;DHT22;23796;51.458;7.000;2022-11-14T02:16:37;6.50;99.90
37974;DHT22;23796;51.458;7.000;2022-11-14T02:19:09;6.40;99.90
37974;DHT22;23796;51.458;7.000;2022-11-14T02:21:37;6.40;99.90
37974;DHT22;23796;51.458;7.000;2022-11-14T02:24:10;6.30;99.90
37974;DHT22;23796;51.458;7.000;2022-11-14T02:26:37;6.20;99.90
37974;DHT22;23796;51.458;7.000;2022-11-14T02:29:07;6.30;99.90
37974;DHT22;23796;51.458;7.000;2022-11-14T02:31:36;6.30;99.90
37974;DHT22;23796;51.458;7.000;2022-11-14T02:34:02;6.30;99.90
37974;DHT22;23796;51.458;7.000;2022-11-14T02:36:27;6.30;99.90
37974;DHT22;23796;51.458;7.000;2022-11-14T02:38:53;6.30;99.90
37974;DHT22;23796;51.458;7.000;2022-11-14T02:41:21;6.30;99.90
37974;DHT22;23796;51.458;7.000;2022-11-14T02:43:46;6.30;99.90
37974;DHT22;23796;51.458;7.000;2022-11-14T02:46:12;6.30;99.90
37974;DHT22;23796;51.458;7.000;2022-11-14T02:48:38;6.30;99.90
37974;DHT22;23796;51.458;7.000;2022-11-14T02:51:03;6.30;99.90
37974;DHT22;23796;51.458;7.000;2022-11-14T02:53:29;6.20;99.90
37974;DHT22;23796;51.458;7.000;2022-11-14T02:55:54;6.10;99.90
37974;DHT22;23796;51.458;7.000;2022-11-14T02:58:22;6.00;99.90
37974;DHT22;23796;51.458;7.000;2022-11-14T03:00:50;5.90;99.90
37974;DHT22;23796;51.458;7.000;2022-11-14T03:03:16;5.80;99.90
37974;DHT22;23796;51.458;7.000;2022-11-14T03:05:43;5.80;99.90
37974;DHT22;23796;51.458;7.000;2022-11-14T03:08:12;5.90;99.90
37974;DHT22;23796;51.458;7.000;2022-11-14T03:10:40;5.90;99.90
37974;DHT22;23796;51.458;7.000;2022-11-14T03:13:05;5.90;99.90
37974;DHT22;23796;51.458;7.000;2022-11-14T03:15:31;5.80;99.90
37974;DHT22;23796;51.458;7.000;2022-11-14T03:17:59;5.60;99.90
37974;DHT22;23796;51.458;7.000;2022-11-14T03:20:27;5.60;99.90
37974;DHT22;23796;51.458;7.000;2022-11-14T03:22:52;5.60;99.90
37974;DHT22;23796;51.458;7.000;2022-11-14T03:25:20;5.70;99.90
37974;DHT22;23796;51.458;7.000;2022-11-14T03:27:48;5.70;99.90
37974;DHT22;23796;51.458;7.000;2022-11-14T03:30:14;5.70;99.90
37974;DHT22;23796;51.458;7.000;2022-11-14T03:32:40;5.50;99.90
37974;DHT22;23796;51.458;7.000;2022-11-14T03:35:06;5.40;99.90
37974;DHT22;23796;51.458;7.000;2022-11-14T03:37:34;5.20;99.90
37974;DHT22;23796;51.458;7.000;2022-11-14T03:39:59;5.20;99.90
37974;DHT22;23796;51.458;7.000;2022-11-14T03:42:32;5.10;99.90
37974;DHT22;23796;51.458;7.000;2022-11-14T03:44:58;5.00;99.90
37974;DHT22;23796;51.458;7.000;2022-11-14T03:47:30;5.00;99.90
37974;DHT22;23796;51.458;7.000;2022-11-14T03:49:58;5.00;99.90
37974;DHT22;23796;51.458;7.000;2022-11-14T03:52:24;4.90;99.90
37974;DHT22;23796;51.458;7.000;2022-11-14T03:54:52;4.90;99.90
37974;DHT22;23796;51.458;7.000;2022-11-14T03:57:18;5.10;99.90
37974;DHT22;23796;51.458;7.000;2022-11-14T03:59:44;5.00;99.90
37974;DHT22;23796;51.458;7.000;2022-11-14T04:02:09;5.00;99.90
37974;DHT22;23796;51.458;7.000;2022-11-14T04:04:35;4.90;99.90
37974;DHT22;23796;51.458;7.000;2022-11-14T04:07:00;4.80;99.90
37974;DHT22;23796;51.458;7.000;2022-11-14T04:09:26;4.80;99.90
37974;DHT22;23796;51.458;7.000;2022-11-14T04:11:51;4.70;99.90
37974;DHT22;23796;51.458;7.000;2022-11-14T04:14:17;4.80;99.90
37974;DHT22;23796;51.458;7.000;2022-11-14T04:16:43;4.80;99.90
37974;DHT22;23796;51.458;7.000;2022-11-14T04:19:08;4.90;99.90
37974;DHT22;23796;51.458;7.000;2022-11-14T04:21:34;4.90;99.90
37974;DHT22;23796;51.458;7.000;2022-11-14T04:23:59;4.80;99.90
37974;DHT22;23796;51.458;7.000;2022-11-14T04:26:25;4.80;99.90
37974;DHT22;23796;51.458;7.000;2022-11-14T04:28:53;4.80;99.90
37974;DHT22;23796;51.458;7.000;2022-11-14T04:31:18;4.60;99.90
37974;DHT22;23796;51.458;7.000;2022-11-14T04:33:46;4.50;99.90
37974;DHT22;23796;51.458;7.000;2022-11-14T04:36:12;4.40;99.90
37974;DHT22;23796;51.458;7.000;2022-11-14T04:38:37;4.50;99.90
37974;DHT22;23796;51.458;7.000;2022-11-14T04:41:04;4.60;99.90
37974;DHT22;23796;51.458;7.000;2022-11-14T04:43:29;4.60;99.90
37974;DHT22;23796;51.458;7.000;2022-11-14T04:45:55;4.60;99.90
37974;DHT22;23796;51.458;7.000;2022-11-14T04:48:20;4.60;99.90
37974;DHT22;23796;51.458;7.000;2022-11-14T04:50:46;4.60;99.90
37974;DHT22;23796;51.458;7.000;2022-11-14T04:53:12;4.70;99.90
37974;DHT22;23796;51.458;7.000;2022-11-14T04:55:37;4.60;99.90
37974;DHT22;23796;51.458;7.000;2022-11-14T04:58:03;4.60;99.90
37974;DHT22;23796;51.458;7.000;2022-11-14T05:00:28;4.50;99.90
37974;DHT22;23796;51.458;7.000;2022-11-14T05:02:54;4.50;99.90
37974;DHT22;23796;51.458;7.000;2022-11-14T05:05:20;4.40;99.90
37974;DHT22;23796;51.458;7.000;2022-11-14T05:07:45;4.40;99.90
37974;DHT22;23796;51.458;7.000;2022-11-14T05:10:11;4.40;99.90
37974;DHT22;23796;51.458;7.000;2022-11-14T05:12:36;4.60;99.90
37974;DHT22;23796;51.458;7.000;2022-11-14T05:15:02;4.50;99.90
37974;DHT22;23796;51.458;7.000;2022-11-14T05:17:30;4.60;99.90
37974;DHT22;23796;51.458;7.000;2022-11-14T05:19:58;4.60;99.90
37974;DHT22;23796;51.458;7.000;2022-11-14T05:22:26;4.60;99.90
37974;DHT22;23796;51.458;7.000;2022-11-14T05:24:54;4.60;99.90
37974;DHT22;23796;51.458;7.000;2022-11-14T05:27:19;4.50;99.90
37974;DHT22;23796;51.458;7.000;2022-11-14T05:29:45;4.50;99.90
37974;DHT22;23796;51.458;7.000;2022-11-14T05:32:13;4.50;99.90
37974;DHT22;23796;51.458;7.000;2022-11-14T05:34:38;4.40;99.90
37974;DHT22;23796;51.458;7.000;2022-11-14T05:37:04;4.30;99.90
37974;DHT22;23796;51.458;7.000;2022-11-14T05:39:30;4.10;99.90
37974;DHT22;23796;51.458;7.000;2022-11-14T05:41:58;3.90;99.90
37974;DHT22;23796;51.458;7.000;2022-11-14T05:44:23;3.90;99.90
37974;DHT22;23796;51.458;7.000;2022-11-14T05:46:49;3.90;99.90
37974;DHT22;23796;51.458;7.000;2022-11-14T05:49:15;3.80;99.90
37974;DHT22;23796;51.458;7.000;2022-11-14T05:51:40;3.90;99.90
37974;DHT22;23796;51.458;7.000;2022-11-14T05:54:06;4.00;99.90
37974;DHT22;23796;51.458;7.000;2022-11-14T05:56:31;4.10;99.90
37974;DHT22;23796;51.458;7.000;2022-11-14T05:58:59;4.20;99.90
37974;DHT22;23796;51.458;7.000;2022-11-14T06:01:25;4.30;99.90
37974;DHT22;23796;51.458;7.000;2022-11-14T06:03:52;4.30;99.90
37974;DHT22;23796;51.458;7.000;2022-11-14T06:06:19;4.40;99.90
37974;DHT22;23796;51.458;7.000;2022-11-14T06:08:46;4.50;99.90
37974;DHT22;23796;51.458;7.000;2022-11-14T06:11:14;4.50;99.90
37974;DHT22;23796;51.458;7.000;2022-11-14T06:13:43;4.60;99.90
37974;DHT22;23796;51.458;7.000;2022-11-14T06:16:16;4.60;99.90
37974;DHT22;23796;51.458;7.000;2022-11-14T06:18:42;4.70;99.90
37974;DHT22;23796;51.458;7.000;2022-11-14T06:21:15;4.80;99.90
37974;DHT22;23796;51.458;7.000;2022-11-14T06:23:44;4.80;99.90
37974;DHT22;23796;51.458;7.000;2022-11-14T06:28:48;4.90;99.90
37974;DHT22;23796;51.458;7.000;2022-11-14T06:31:14;5.00;99.90
37974;DHT22;23796;51.458;7.000;2022-11-14T06:33:40;5.10;99.90
37974;DHT22;23796;51.458;7.000;2022-11-14T06:36:07;5.10;99.90
37974;DHT22;23796;51.458;7.000;2022-11-14T06:38:34;5.20;99.90
37974;DHT22;23796;51.458;7.000;2022-11-14T06:43:35;5.60;99.90
37974;DHT22;23796;51.458;7.000;2022-11-14T06:46:02;5.80;99.90
37974;DHT22;23796;51.458;7.000;2022-11-14T06:48:28;5.90;99.90
37974;DHT22;23796;51.458;7.000;2022-11-14T06:50:54;6.00;99.90
37974;DHT22;23796;51.458;7.000;2022-11-14T06:53:20;6.10;99.90
37974;DHT22;23796;51.458;7.000;2022-11-14T06:56:00;6.20;99.90
37974;DHT22;23796;51.458;7.000;2022-11-14T06:58:32;6.30;99.90
37974;DHT22;23796;51.458;7.000;2022-11-14T07:01:03;6.30;99.90
37974;DHT22;23796;51.458;7.000;2022-11-14T07:03:29;6.40;99.90
37974;DHT22;23796;51.458;7.000;2022-11-14T07:06:03;6.50;99.90
37974;DHT22;23796;51.458;7.000;2022-11-14T07:08:29;6.20;99.90
37974;DHT22;23796;51.458;7.000;2022-11-14T07:11:06;6.10;99.90
37974;DHT22;23796;51.458;7.000;2022-11-14T07:13:33;5.90;99.90
37974;DHT22;23796;51.458;7.000;2022-11-14T07:15:59;5.90;99.90
37974;DHT22;23796;51.458;7.000;2022-11-14T07:18:28;6.00;99.90
37974;DHT22;23796;51.458;7.000;2022-11-14T07:21:00;6.10;99.90
37974;DHT22;23796;51.458;7.000;2022-11-14T07:23:26;6.10;99.90
37974;DHT22;23796;51.458;7.000;2022-11-14T07:25:55;6.30;99.90
37974;DHT22;23796;51.458;7.000;2022-11-14T07:28:20;6.30;99.90
37974;DHT22;23796;51.458;7.000;2022-11-14T07:30:46;6.50;99.90
37974;DHT22;23796;51.458;7.000;2022-11-14T07:33:11;6.60;99.90
37974;DHT22;23796;51.458;7.000;2022-11-14T07:35:40;6.70;99.90
37974;DHT22;23796;51.458;7.000;2022-11-14T07:38:08;6.80;99.90
37974;DHT22;23796;51.458;7.000;2022-11-14T07:40:34;6.90;99.90
37974;DHT22;23796;51.458;7.000;2022-11-14T07:43:00;6.90;99.90
37974;DHT22;23796;51.458;7.000;2022-11-14T07:45:27;7.00;99.90
37974;DHT22;23796;51.458;7.000;2022-11-14T07:47:57;7.00;99.90
37974;DHT22;23796;51.458;7.000;2022-11-14T07:50:24;7.10;99.90
37974;DHT22;23796;51.458;7.000;2022-11-14T07:52:54;7.10;99.90
37974;DHT22;23796;51.458;7.000;2022-11-14T07:55:20;7.10;99.90
37974;DHT22;23796;51.458;7.000;2022-11-14T07:57:46;7.20;99.90
37974;DHT22;23796;51.458;7.000;2022-11-14T08:00:12;7.30;99.90
37974;DHT22;23796;51.458;7.000;2022-11-14T08:02:38;7.30;99.90
37974;DHT22;23796;51.458;7.000;2022-11-14T08:05:04;7.40;99.90
37974;DHT22;23796;51.458;7.000;2022-11-14T08:07:30;7.40;99.90
37974;DHT22;23796;51.458;7.000;2022-11-14T08:09:58;7.40;99.90
37974;DHT22;23796;51.458;7.000;2022-11-14T08:12:28;7.50;99.90
37974;DHT22;23796;51.458;7.000;2022-11-14T08:14:53;7.50;99.90
37974;DHT22;23796;51.458;7.000;2022-11-14T08:17:20;7.60;99.90
37974;DHT22;23796;51.458;7.000;2022-11-14T08:19:46;7.70;99.90
37974;DHT22;23796;51.458;7.000;2022-11-14T08:22:11;7.70;99.90
37974;DHT22;23796;51.458;7.000;2022-11-14T08:24:40;7.80;99.90
37974;DHT22;23796;51.458;7.000;2022-11-14T08:27:07;7.80;99.90
37974;DHT22;23796;51.458;7.000;2022-11-14T08:29:35;7.80;99.90
37974;DHT22;23796;51.458;7.000;2022-11-14T08:32:03;7.90;99.90
37974;DHT22;23796;51.458;7.000;2022-11-14T08:34:29;8.00;99.90
37974;DHT22;23796;51.458;7.000;2022-11-14T08:36:55;8.00;99.90
37974;DHT22;23796;51.458;7.000;2022-11-14T08:39:24;8.00;99.90
37974;DHT22;23796;51.458;7.000;2022-11-14T08:41:51;8.00;99.90
37974;DHT22;23796;51.458;7.000;2022-11-14T08:44:19;8.10;99.90
37974;DHT22;23796;51.458;7.000;2022-11-14T08:46:45;8.20;99.90
37974;DHT22;23796;51.458;7.000;2022-11-14T08:49:11;8.20;99.90
37974;DHT22;23796;51.458;7.000;2022-11-14T08:51:36;8.30;99.90
37974;DHT22;23796;51.458;7.000;2022-11-14T08:54:04;8.40;99.90
37974;DHT22;23796;51.458;7.000;2022-11-14T08:56:30;8.40;99.90
37974;DHT22;23796;51.458;7.000;2022-11-14T08:58:55;8.40;99.90
37974;DHT22;23796;51.458;7.000;2022-11-14T09:01:21;8.40;99.90
37974;DHT22;23796;51.458;7.000;2022-11-14T09:03:46;8.50;99.90
37974;DHT22;23796;51.458;7.000;2022-11-14T09:06:12;8.50;99.90
37974;DHT22;23796;51.458;7.000;2022-11-14T09:08:40;8.50;99.90
37974;DHT22;23796;51.458;7.000;2022-11-14T09:11:08;8.60;99.90
37974;DHT22;23796;51.458;7.000;2022-11-14T09:13:34;8.60;99.90
37974;DHT22;23796;51.458;7.000;2022-11-14T09:16:00;8.60;99.90
37974;DHT22;23796;51.458;7.000;2022-11-14T09:18:28;8.60;99.90
37974;DHT22;23796;51.458;7.000;2022-11-14T09:20:59;8.70;99.90
37974;DHT22;23796;51.458;7.000;2022-11-14T09:23:25;8.70;99.90
37974;DHT22;23796;51.458;7.000;2022-11-14T09:25:53;8.80;99.90
37974;DHT22;23796;51.458;7.000;2022-11-14T09:28:24;9.00;99.90
37974;DHT22;23796;51.458;7.000;2022-11-14T09:30:50;9.20;99.90
37974;DHT22;23796;51.458;7.000;2022-11-14T09:33:16;9.40;99.90
37974;DHT22;23796;51.458;7.000;2022-11-14T09:35:41;9.60;99.90
37974;DHT22;23796;51.458;7.000;2022-11-14T09:38:10;9.80;99.90
37974;DHT22;23796;51.458;7.000;2022-11-14T09:46:52;10.00;99.90
37974;DHT22;23796;51.458;7.000;2022-11-14T09:52:44;10.10;99.90
37974;DHT22;23796;51.458;7.000;2022-11-14T09:55:00;10.10;99.90
37974;DHT22;23796;51.458;7.000;2022-11-14T09:57:27;10.20;99.90
37974;DHT22;23796;51.458;7.000;2022-11-14T09:59:53;10.30;99.90
37974;DHT22;23796;51.458;7.000;2022-11-14T10:02:30;10.40;99.90
37974;DHT22;23796;51.458;7.000;2022-11-14T10:11:21;10.40;99.90
37974;DHT22;23796;51.458;7.000;2022-11-14T10:14:03;10.50;99.90
37974;DHT22;23796;51.458;7.000;2022-11-14T10:16:53;10.60;99.90
37974;DHT22;23796;51.458;7.000;2022-11-14T10:19:37;10.60;99.90
37974;DHT22;23796;51.458;7.000;2022-11-14T10:25:02;10.50;99.90
37974;DHT22;23796;51.458;7.000;2022-11-14T10:27:43;10.50;99.90
37974;DHT22;23796;51.458;7.000;2022-11-14T10:30:15;10.50;99.90
37974;DHT22;23796;51.458;7.000;2022-11-14T10:33:14;10.40;99.90
37974;DHT22;23796;51.458;7.000;2022-11-14T10:35:52;10.30;99.90
37974;DHT22;23796;51.458;7.000;2022-11-14T10:38:23;10.20;99.90
37974;DHT22;23796;51.458;7.000;2022-11-14T10:40:55;10.10;99.90
37974;DHT22;23796;51.458;7.000;2022-11-14T10:46:25;10.10;99.90
37974;DHT22;23796;51.458;7.000;2022-11-14T10:48:51;10.20;99.90
37974;DHT22;23796;51.458;7.000;2022-11-14T10:56:46;10.40;99.90
37974;DHT22;23796;51.458;7.000;2022-11-14T10:59:12;10.30;99.90
37974;DHT22;23796;51.458;7.000;2022-11-14T11:01:43;10.40;99.90
37974;DHT22;23796;51.458;7.000;2022-11-14T11:04:33;10.40;99.90
37974;DHT22;23796;51.458;7.000;2022-11-14T11:12:41;10.50;99.90
37974;DHT22;23796;51.458;7.000;2022-11-14T11:17:59;10.60;99.90
37974;DHT22;23796;51.458;7.000;2022-11-14T11:20:33;10.70;99.90
37974;DHT22;23796;51.458;7.000;2022-11-14T11:25:31;11.00;99.90
37974;DHT22;23796;51.458;7.000;2022-11-14T11:30:32;11.20;99.90
37974;DHT22;23796;51.458;7.000;2022-11-14T11:33:21;11.20;99.90
37974;DHT22;23796;51.458;7.000;2022-11-14T11:35:49;11.30;99.90
37974;DHT22;23796;51.458;7.000;2022-11-14T11:38:19;11.40;99.90
37974;DHT22;23796;51.458;7.000;2022-11-14T11:40:48;11.50;99.90
37974;DHT22;23796;51.458;7.000;2022-11-14T11:46:05;11.30;99.90
37974;DHT22;23796;51.458;7.000;2022-11-14T11:48:37;11.20;99.90
37974;DHT22;23796;51.458;7.000;2022-11-14T11:51:05;11.20;99.90
37974;DHT22;23796;51.458;7.000;2022-11-14T11:53:36;11.20;99.90
37974;DHT22;23796;51.458;7.000;2022-11-14T11:56:09;11.30;99.90
37974;DHT22;23796;51.458;7.000;2022-11-14T11:58:46;11.50;99.90
37974;DHT22;23796;51.458;7.000;2022-11-14T12:01:12;11.70;99.90
37974;DHT22;23796;51.458;7.000;2022-11-14T12:03:41;12.00;99.90
37974;DHT22;23796;51.458;7.000;2022-11-14T12:06:23;11.80;99.90
37974;DHT22;23796;51.458;7.000;2022-11-14T12:11:26;11.50;99.90
37974;DHT22;23796;51.458;7.000;2022-11-14T12:30:19;11.80;99.90
37974;DHT22;23796;51.458;7.000;2022-11-14T12:35:33;11.70;99.90
37974;DHT22;23796;51.458;7.000;2022-11-14T12:38:04;11.80;99.90
37974;DHT22;23796;51.458;7.000;2022-11-14T12:40:40;11.90;99.90
37974;DHT22;23796;51.458;7.000;2022-11-14T12:46:00;12.00;99.90
37974;DHT22;23796;51.458;7.000;2022-11-14T12:48:34;12.00;99.90
37974;DHT22;23796;51.458;7.000;2022-11-14T12:51:01;12.10;99.90
37974;DHT22;23796;51.458;7.000;2022-11-14T13:05:15;11.90;99.90
37974;DHT22;23796;51.458;7.000;2022-11-14T13:07:59;11.80;99.90
37974;DHT22;23796;51.458;7.000;2022-11-14T13:10:35;11.70;99.90
37974;DHT22;23796;51.458;7.000;2022-11-14T13:13:11;11.80;99.90
37974;DHT22;23796;51.458;7.000;2022-11-14T13:15:57;11.90;99.90
37974;DHT22;23796;51.458;7.000;2022-11-14T13:19:00;11.90;99.90
37974;DHT22;23796;51.458;7.000;2022-11-14T13:27:28;12.00;99.90
37974;DHT22;23796;51.458;7.000;2022-11-14T13:29:54;12.00;99.90
37974;DHT22;23796;51.458;7.000;2022-11-14T13:44:21;11.90;99.90
37974;DHT22;23796;51.458;7.000;2022-11-14T13:50:06;11.80;99.90
37974;DHT22;23796;51.458;7.000;2022-11-14T13:52:38;11.80;99.90
37974;DHT22;23796;51.458;7.000;2022-11-14T13:55:05;11.80;99.90
37974;DHT22;23796;51.458;7.000;2022-11-14T14:20:14;11.60;99.90
37974;DHT22;23796;51.458;7.000;2022-11-14T14:30:27;11.70;99.90
37974;DHT22;23796;51.458;7.000;2022-11-14T14:35:37;11.60;99.90
37974;DHT22;23796;51.458;7.000;2022-11-14T14:38:12;11.50;99.90
37974;DHT22;23796;51.458;7.000;2022-11-14T14:40:46;11.50;99.90
37974;DHT22;23796;51.458;7.000;2022-11-14T14:43:30;11.50;99.90
37974;DHT22;23796;51.458;7.000;2022-11-14T14:45:59;11.50;99.90
37974;DHT22;23796;51.458;7.000;2022-11-14T14:48:29;11.60;99.90
37974;DHT22;23796;51.458;7.000;2022-11-14T14:50:57;11.50;99.90
37974;DHT22;23796;51.458;7.000;2022-11-14T14:53:24;11.50;99.90
37974;DHT22;23796;51.458;7.000;2022-11-14T14:55:56;11.40;99.90
37974;DHT22;23796;51.458;7.000;2022-11-14T14:58:25;11.40;99.90
37974;DHT22;23796;51.458;7.000;2022-11-14T15:00:58;11.50;99.90
37974;DHT22;23796;51.458;7.000;2022-11-14T15:03:30;11.40;99.90
37974;DHT22;23796;51.458;7.000;2022-11-14T15:06:01;11.40;99.90
37974;DHT22;23796;51.458;7.000;2022-11-14T15:08:29;11.40;99.90
37974;DHT22;23796;51.458;7.000;2022-11-14T15:10:59;11.30;99.90
37974;DHT22;23796;51.458;7.000;2022-11-14T15:13:29;11.30;99.90
37974;DHT22;23796;51.458;7.000;2022-11-14T15:15:57;11.20;99.90
37974;DHT22;23796;51.458;7.000;2022-11-14T15:18:28;11.20;99.90
37974;DHT22;23796;51.458;7.000;2022-11-14T15:21:26;11.20;99.90
37974;DHT22;23796;51.458;7.000;2022-11-14T15:24:16;11.10;99.90
37974;DHT22;23796;51.458;7.000;2022-11-14T15:26:43;11.10;99.90
37974;DHT22;23796;51.458;7.000;2022-11-14T15:29:23;11.10;99.90
37974;DHT22;23796;51.458;7.000;2022-11-14T15:34:23;11.20;99.90
37974;DHT22;23796;51.458;7.000;2022-11-14T15:39:41;11.20;99.90
37974;DHT22;23796;51.458;7.000;2022-11-14T15:44:41;11.20;99.90
37974;DHT22;23796;51.458;7.000;2022-11-14T15:50:04;11.10;99.90
37974;DHT22;23796;51.458;7.000;2022-11-14T15:52:39;11.20;99.90
37974;DHT22;23796;51.458;7.000;2022-11-14T15:55:19;11.10;99.90
37974;DHT22;23796;51.458;7.000;2022-11-14T15:57:46;11.10;99.90
37974;DHT22;23796;51.458;7.000;2022-11-14T16:00:15;11.10;99.90
37974;DHT22;23796;51.458;7.000;2022-11-14T16:02:52;11.10;99.90
37974;DHT22;23796;51.458;7.000;2022-11-14T16:05:24;11.00;99.90
37974;DHT22;23796;51.458;7.000;2022-11-14T16:07:50;11.00;99.90
37974;DHT22;23796;51.458;7.000;2022-11-14T16:10:24;10.90;99.90
37974;DHT22;23796;51.458;7.000;2022-11-14T16:12:49;10.90;99.90
37974;DHT22;23796;51.458;7.000;2022-11-14T16:15:19;10.90;99.90
37974;DHT22;23796;51.458;7.000;2022-11-14T16:17:48;10.90;99.90
37974;DHT22;23796;51.458;7.000;2022-11-14T16:20:27;10.80;99.90
37974;DHT22;23796;51.458;7.000;2022-11-14T16:22:54;10.70;99.90
37974;DHT22;23796;51.458;7.000;2022-11-14T16:25:29;10.70;99.90
37974;DHT22;23796;51.458;7.000;2022-11-14T16:27:55;10.70;99.90
37974;DHT22;23796;51.458;7.000;2022-11-14T16:30:25;10.70;99.90
37974;DHT22;23796;51.458;7.000;2022-11-14T16:32:53;10.80;99.90
37974;DHT22;23796;51.458;7.000;2022-11-14T16:35:23;10.80;99.90
37974;DHT22;23796;51.458;7.000;2022-11-14T16:37:53;10.70;99.90
37974;DHT22;23796;51.458;7.000;2022-11-14T16:40:26;10.80;99.90
37974;DHT22;23796;51.458;7.000;2022-11-14T16:42:57;10.80;99.90
37974;DHT22;23796;51.458;7.000;2022-11-14T16:45:24;10.80;99.90
37974;DHT22;23796;51.458;7.000;2022-11-14T16:47:51;10.80;99.90
37974;DHT22;23796;51.458;7.000;2022-11-14T16:50:18;10.80;99.90
37974;DHT22;23796;51.458;7.000;2022-11-14T16:52:48;10.70;99.90
37974;DHT22;23796;51.458;7.000;2022-11-14T16:55:13;10.80;99.90
37974;DHT22;23796;51.458;7.000;2022-11-14T16:57:39;10.80;99.90
37974;DHT22;23796;51.458;7.000;2022-11-14T17:00:10;10.80;99.90
37974;DHT22;23796;51.458;7.000;2022-11-14T17:02:39;10.80;99.90
37974;DHT22;23796;51.458;7.000;2022-11-14T17:05:05;10.80;99.90
37974;DHT22;23796;51.458;7.000;2022-11-14T17:07:31;10.80;99.90
37974;DHT22;23796;51.458;7.000;2022-11-14T17:09:58;10.90;99.90
37974;DHT22;23796;51.458;7.000;2022-11-14T17:12:25;10.90;99.90
37974;DHT22;23796;51.458;7.000;2022-11-14T17:14:50;10.90;99.90
37974;DHT22;23796;51.458;7.000;2022-11-14T17:17:20;10.90;99.90
37974;DHT22;23796;51.458;7.000;2022-11-14T17:19:45;10.90;99.90
37974;DHT22;23796;51.458;7.000;2022-11-14T17:22:14;10.90;99.90
37974;DHT22;23796;51.458;7.000;2022-11-14T17:24:40;10.80;99.90
37974;DHT22;23796;51.458;7.000;2022-11-14T17:27:07;10.80;99.90
37974;DHT22;23796;51.458;7.000;2022-11-14T17:29:32;10.90;99.90
37974;DHT22;23796;51.458;7.000;2022-11-14T17:31:58;10.80;99.90
37974;DHT22;23796;51.458;7.000;2022-11-14T17:34:26;10.80;99.90
37974;DHT22;23796;51.458;7.000;2022-11-14T17:36:52;10.80;99.90
37974;DHT22;23796;51.458;7.000;2022-11-14T17:39:18;10.80;99.90
37974;DHT22;23796;51.458;7.000;2022-11-14T17:41:44;10.80;99.90
37974;DHT22;23796;51.458;7.000;2022-11-14T17:44:10;10.70;99.90
37974;DHT22;23796;51.458;7.000;2022-11-14T17:46:36;10.70;99.90
37974;DHT22;23796;51.458;7.000;2022-11-14T17:49:03;10.80;99.90
37974;DHT22;23796;51.458;7.000;2022-11-14T17:51:29;10.80;99.90
37974;DHT22;23796;51.458;7.000;2022-11-14T17:53:55;10.80;99.90
37974;DHT22;23796;51.458;7.000;2022-11-14T17:56:23;10.80;99.90
37974;DHT22;23796;51.458;7.000;2022-11-14T17:58:51;10.80;99.90
37974;DHT22;23796;51.458;7.000;2022-11-14T18:01:19;10.80;99.90
37974;DHT22;23796;51.458;7.000;2022-11-14T18:03:46;10.80;99.90
37974;DHT22;23796;51.458;7.000;2022-11-14T18:06:18;10.80;99.90
37974;DHT22;23796;51.458;7.000;2022-11-14T18:08:44;10.80;99.90
37974;DHT22;23796;51.458;7.000;2022-11-14T18:11:12;10.80;99.90
37974;DHT22;23796;51.458;7.000;2022-11-14T18:13:39;10.80;99.90
37974;DHT22;23796;51.458;7.000;2022-11-14T18:16:11;10.80;99.90
37974;DHT22;23796;51.458;7.000;2022-11-14T18:18:37;10.80;99.90